Time;durP1;ratioP1;P1;durP2;ratioP2;P2;SDS_P1;SDS_P2;PMS_P1;PMS_P2;Temp;Humidity;BMP_temperature;BMP_pressure;BME280_temperature;BME280_humidity;BME280_pressure;Samples;Min_cycle;Max_cycle;Signal;HPM_P1;HPM_P2
2022/02/15 00:01:25;;;;;;;8.17;2.50;;;9.20;99.90;;;;;;4989403;28;20208;-77
2022/02/15 00:03:52;;;;;;;5.80;2.00;;;9.20;99.90;;;;;;4966287;28;20581;-75
2022/02/15 00:06:18;;;;;;;3.67;1.85;;;9.20;99.90;;;;;;5001849;28;20174;-74
2022/02/15 00:08:44;;;;;;;6.55;1.83;;;9.20;99.90;;;;;;4999966;28;20210;-78
2022/02/15 00:11:10;;;;;;;5.20;2.93;;;9.30;99.90;;;;;;5002554;28;20170;-76
2022/02/15 00:13:35;;;;;;;4.33;1.80;;;9.30;99.90;;;;;;4990883;28;20167;-76
2022/02/15 00:16:01;;;;;;;3.57;1.90;;;9.40;99.90;;;;;;5002869;28;20220;-76
2022/02/15 00:18:27;;;;;;;4.90;1.67;;;9.50;99.90;;;;;;5010898;28;20244;-76
2022/02/15 00:20:52;;;;;;;3.90;1.47;;;9.50;99.90;;;;;;5004948;28;20270;-75
2022/02/15 00:23:18;;;;;;;4.97;1.60;;;9.50;99.90;;;;;;5013635;28;20830;-75
2022/02/15 00:25:44;;;;;;;5.57;1.40;;;9.50;99.90;;;;;;4991970;28;20216;-75
2022/02/15 00:28:09;;;;;;;4.37;1.20;;;9.50;99.90;;;;;;5002184;28;20215;-75
2022/02/15 00:30:35;;;;;;;3.77;1.40;;;9.60;99.90;;;;;;4999188;28;20228;-75
2022/02/15 00:33:02;;;;;;;4.25;1.42;;;9.60;99.90;;;;;;4984770;28;20237;-75
2022/02/15 00:35:28;;;;;;;7.73;1.30;;;9.60;99.90;;;;;;4989863;28;20174;-75
2022/02/15 00:37:54;;;;;;;6.27;1.10;;;9.60;99.90;;;;;;4973766;28;20199;-75
2022/02/15 00:40:24;;;;;;;3.92;1.35;;;9.70;99.90;;;;;;5001523;28;20600;-75
2022/02/15 00:42:49;;;;;;;4.40;1.50;;;9.70;99.90;;;;;;5000058;28;20213;-82
2022/02/15 00:45:15;;;;;;;3.60;1.30;;;9.80;99.90;;;;;;4988162;28;20266;-83
2022/02/15 00:47:41;;;;;;;3.93;1.20;;;9.80;99.90;;;;;;4996444;28;20246;-83
2022/02/15 00:50:08;;;;;;;3.92;1.40;;;9.90;99.90;;;;;;4988995;28;20599;-83
2022/02/15 00:52:33;;;;;;;3.90;1.20;;;9.90;99.90;;;;;;4978622;28;20693;-82
2022/02/15 00:54:59;;;;;;;6.00;1.53;;;9.90;99.90;;;;;;5008165;28;20175;-82
2022/02/15 00:57:25;;;;;;;4.63;1.33;;;10.00;99.90;;;;;;5009777;28;20608;-83
2022/02/15 00:59:51;;;;;;;3.53;1.20;;;10.00;99.90;;;;;;5004379;28;20935;-82
2022/02/15 01:02:17;;;;;;;4.37;1.10;;;10.00;99.90;;;;;;4997214;28;21057;-82
2022/02/15 01:04:43;;;;;;;7.03;1.40;;;10.10;99.90;;;;;;4995346;28;20582;-83
2022/02/15 01:07:09;;;;;;;7.30;2.23;;;10.10;99.90;;;;;;5004888;28;20197;-82
2022/02/15 01:09:35;;;;;;;7.00;1.40;;;10.20;99.90;;;;;;5004084;28;20735;-82
2022/02/15 01:12:01;;;;;;;2.63;1.30;;;10.20;99.90;;;;;;5004708;28;20269;-81
2022/02/15 01:14:27;;;;;;;5.93;1.63;;;10.20;99.90;;;;;;4970387;28;20480;-82
2022/02/15 01:16:53;;;;;;;4.82;1.70;;;10.30;99.90;;;;;;5003620;28;20609;-81
2022/02/15 01:19:19;;;;;;;3.78;1.50;;;10.30;99.90;;;;;;4984848;28;20222;-81
2022/02/15 01:21:44;;;;;;;3.83;1.60;;;10.30;99.90;;;;;;4994125;28;20237;-82
2022/02/15 01:24:10;;;;;;;5.57;1.30;;;10.30;99.90;;;;;;5004989;28;20241;-81
2022/02/15 01:26:36;;;;;;;6.30;1.90;;;10.40;99.90;;;;;;4994051;28;20528;-81
2022/02/15 01:29:02;;;;;;;2.90;1.40;;;10.40;99.90;;;;;;4995703;28;20178;-81
2022/02/15 01:31:28;;;;;;;4.40;1.23;;;10.40;99.90;;;;;;4984833;28;20190;-81
2022/02/15 01:33:54;;;;;;;4.27;1.50;;;10.40;99.90;;;;;;5001124;28;20190;-81
2022/02/15 01:36:20;;;;;;;4.10;1.43;;;10.50;99.90;;;;;;4985220;28;20190;-83
2022/02/15 01:38:46;;;;;;;5.17;1.43;;;10.50;99.90;;;;;;4987585;28;20632;-83
2022/02/15 01:41:12;;;;;;;3.83;1.65;;;10.50;99.90;;;;;;4992189;28;20570;-83
2022/02/15 01:43:42;;;;;;;12.47;1.87;;;10.50;99.90;;;;;;5001770;28;20182;-82
2022/02/15 01:46:11;;;;;;;3.63;2.03;;;10.50;99.90;;;;;;4985319;28;20195;-82
2022/02/15 01:48:39;;;;;;;3.75;1.63;;;10.50;99.90;;;;;;4986745;28;20198;-82
2022/02/15 01:51:06;;;;;;;2.88;1.35;;;10.50;99.90;;;;;;4993976;28;20761;-82
2022/02/15 01:53:32;;;;;;;2.70;1.30;;;10.50;99.90;;;;;;4993365;28;20270;-82
2022/02/15 01:55:58;;;;;;;2.97;1.40;;;10.60;99.90;;;;;;4986460;28;20186;-82
2022/02/15 01:58:24;;;;;;;5.10;1.60;;;10.50;99.90;;;;;;4969307;28;20303;-82
2022/02/15 02:00:51;;;;;;;5.53;1.58;;;10.60;99.90;;;;;;5003543;28;20212;-82
2022/02/15 02:03:36;;;;;;;2.95;1.30;;;10.60;99.90;;;;;;4992638;28;20179;-82
2022/02/15 02:06:03;;;;;;;6.07;2.17;;;10.60;99.90;;;;;;5001572;28;20170;-81
2022/02/15 02:08:35;;;;;;;3.75;1.30;;;10.60;99.90;;;;;;5001119;28;20671;-82
2022/02/15 02:11:02;;;;;;;7.22;1.80;;;10.60;99.90;;;;;;4990251;28;20178;-83
2022/02/15 02:13:49;;;;;;;3.30;1.35;;;10.60;99.90;;;;;;5001396;28;20182;-82
2022/02/15 02:16:16;;;;;;;4.78;1.48;;;10.60;99.90;;;;;;4983871;28;20206;-82
2022/02/15 02:19:04;;;;;;;6.18;1.25;;;10.60;99.90;;;;;;4994688;28;20217;-82
2022/02/15 02:21:40;;;;;;;4.25;1.67;;;10.60;99.90;;;;;;4979358;28;20198;-82
2022/02/15 02:24:09;;;;;;;4.97;1.58;;;10.60;99.90;;;;;;4983918;28;20179;-82
2022/02/15 02:26:38;;;;;;;3.10;1.17;;;10.70;99.90;;;;;;4971132;28;20312;-82
2022/02/15 02:29:04;;;;;;;4.53;1.40;;;10.70;99.90;;;;;;4987375;28;20218;-82
2022/02/15 02:31:34;;;;;;;2.95;1.20;;;10.70;99.90;;;;;;4987117;28;20758;-83
2022/02/15 02:34:04;;;;;;;4.75;1.40;;;10.60;99.90;;;;;;4978175;28;20186;-83
2022/02/15 02:36:40;;;;;;;3.10;1.43;;;10.60;99.90;;;;;;4968354;28;20190;-82
2022/02/15 02:39:06;;;;;;;3.60;1.45;;;10.60;99.90;;;;;;4975720;28;20240;-82
2022/02/15 02:41:32;;;;;;;4.70;1.23;;;10.60;99.90;;;;;;4999384;28;20199;-83
2022/02/15 02:43:58;;;;;;;7.00;1.77;;;10.60;99.90;;;;;;4993279;28;20592;-82
2022/02/15 02:46:24;;;;;;;4.40;1.67;;;10.60;99.90;;;;;;4968962;28;20606;-82
2022/02/15 02:48:49;;;;;;;3.87;1.30;;;10.60;99.90;;;;;;4985470;28;20194;-83
2022/02/15 02:51:15;;;;;;;3.87;1.33;;;10.60;99.90;;;;;;4984833;28;20228;-82
2022/02/15 02:53:41;;;;;;;2.30;1.10;;;10.60;99.90;;;;;;4989096;28;20182;-81
2022/02/15 02:56:07;;;;;;;2.75;1.33;;;10.60;99.90;;;;;;4977399;28;20210;-82
2022/02/15 02:58:36;;;;;;;3.50;1.60;;;10.60;99.90;;;;;;4986881;28;20278;-82
2022/02/15 03:01:02;;;;;;;4.10;1.40;;;10.60;99.90;;;;;;4992051;28;20261;-82
2022/02/15 03:03:34;;;;;;;4.95;1.55;;;10.60;99.90;;;;;;4991926;28;20242;-82
2022/02/15 03:06:00;;;;;;;3.00;1.70;;;10.60;99.90;;;;;;4985246;28;20236;-81
2022/02/15 03:08:27;;;;;;;3.05;1.30;;;10.60;99.90;;;;;;4967923;28;21146;-82
2022/02/15 03:10:53;;;;;;;6.25;1.50;;;10.60;99.90;;;;;;5000066;28;20219;-82
2022/02/15 03:13:45;;;;;;;4.45;1.75;;;10.60;99.90;;;;;;4972361;28;20273;-82
2022/02/15 03:16:18;;;;;;;5.20;1.98;;;10.60;99.90;;;;;;4983608;28;20261;-82
2022/02/15 03:18:44;;;;;;;2.93;1.50;;;10.60;99.90;;;;;;4993901;28;20186;-82
2022/02/15 03:21:12;;;;;;;3.00;1.65;;;10.60;99.90;;;;;;4983096;28;20175;-82
2022/02/15 03:23:38;;;;;;;5.00;1.70;;;10.60;99.90;;;;;;4990567;28;20621;-81
2022/02/15 03:26:06;;;;;;;5.47;1.65;;;10.60;99.90;;;;;;4986491;28;20186;-81
2022/02/15 03:28:33;;;;;;;4.30;1.40;;;10.60;99.90;;;;;;4991027;28;20203;-81
2022/02/15 03:31:00;;;;;;;3.92;1.67;;;10.60;99.90;;;;;;4998755;28;20533;-82
2022/02/15 03:33:31;;;;;;;4.80;1.80;;;10.60;99.90;;;;;;4986521;28;20183;-81
2022/02/15 03:35:57;;;;;;;2.88;1.55;;;10.60;99.90;;;;;;4965799;28;20183;-81
2022/02/15 03:38:24;;;;;;;4.53;1.40;;;10.60;99.90;;;;;;4969811;28;20540;-81
2022/02/15 03:43:42;;;;;;;3.17;1.52;;;10.60;99.90;;;;;;4966260;28;20187;-82
2022/02/15 03:46:10;;;;;;;4.53;1.70;;;10.50;99.90;;;;;;4982339;28;20546;-81
2022/02/15 03:48:38;;;;;;;4.47;1.77;;;10.50;99.90;;;;;;4974690;28;20234;-81
2022/02/15 03:51:05;;;;;;;4.57;1.95;;;10.50;99.90;;;;;;4999885;28;20175;-82
2022/02/15 03:53:35;;;;;;;3.75;1.90;;;10.50;99.90;;;;;;4990745;28;20213;-81
2022/02/15 03:56:02;;;;;;;3.63;2.10;;;10.50;99.90;;;;;;4983650;28;20206;-81
2022/02/15 03:58:29;;;;;;;2.20;1.98;;;10.50;99.90;;;;;;4970504;28;20604;-81
2022/02/15 04:00:56;;;;;;;4.85;2.28;;;10.50;99.90;;;;;;4968801;28;20183;-81
2022/02/15 04:03:27;;;;;;;3.40;2.03;;;10.50;99.90;;;;;;4985259;28;20620;-81
2022/02/15 04:05:54;;;;;;;5.80;1.90;;;10.50;99.90;;;;;;4983713;28;20175;-82
2022/02/15 04:08:22;;;;;;;3.05;1.70;;;10.50;99.90;;;;;;5001111;28;21024;-82
2022/02/15 04:10:49;;;;;;;5.28;1.70;;;10.50;99.90;;;;;;4975334;28;20178;-81
2022/02/15 04:13:18;;;;;;;4.90;1.98;;;10.50;99.90;;;;;;4992345;28;20175;-81
2022/02/15 04:15:45;;;;;;;6.35;2.40;;;10.60;99.90;;;;;;4983960;28;20178;-81
2022/02/15 04:18:11;;;;;;;5.65;2.60;;;10.50;99.90;;;;;;4995052;28;20276;-81
2022/02/15 04:20:38;;;;;;;4.80;2.28;;;10.50;99.90;;;;;;4986143;28;20178;-81
2022/02/15 04:23:06;;;;;;;4.03;1.92;;;10.50;99.90;;;;;;4996233;28;20198;-81
2022/02/15 04:25:32;;;;;;;3.50;2.17;;;10.50;99.90;;;;;;4988014;28;20174;-81
2022/02/15 04:28:01;;;;;;;7.05;2.92;;;10.50;99.90;;;;;;4988158;28;20286;-81
2022/02/15 04:30:28;;;;;;;3.95;3.40;;;10.50;99.90;;;;;;4987108;28;20174;-81
2022/02/15 04:32:54;;;;;;;3.70;2.30;;;10.50;99.90;;;;;;4969786;28;20191;-81
2022/02/15 04:35:20;;;;;;;8.40;2.40;;;10.40;99.90;;;;;;4996625;28;20585;-81
2022/02/15 04:37:50;;;;;;;5.10;2.78;;;10.40;99.90;;;;;;4997209;28;20211;-81
2022/02/15 04:40:17;;;;;;;8.23;3.23;;;10.40;99.90;;;;;;4988109;28;20185;-81
2022/02/15 04:42:44;;;;;;;4.40;2.90;;;10.30;99.90;;;;;;4997068;28;20210;-82
2022/02/15 04:45:10;;;;;;;3.65;2.63;;;10.20;99.90;;;;;;4995149;28;20285;-81
2022/02/15 04:47:41;;;;;;;6.43;3.55;;;10.10;99.90;;;;;;5004149;28;20202;-81
2022/02/15 04:50:08;;;;;;;3.10;2.53;;;10.00;99.90;;;;;;5002755;28;20179;-82
2022/02/15 04:52:35;;;;;;;3.47;2.92;;;9.90;99.90;;;;;;4998040;28;20193;-81
2022/02/15 04:55:02;;;;;;;6.15;3.10;;;9.90;99.90;;;;;;4974869;28;20183;-81
2022/02/15 04:57:28;;;;;;;4.40;3.20;;;9.80;99.90;;;;;;4995182;28;20230;-82
2022/02/15 04:59:54;;;;;;;7.17;2.83;;;9.70;99.90;;;;;;4982748;28;20183;-82
2022/02/15 05:02:26;;;;;;;4.97;3.30;;;9.70;99.90;;;;;;4972158;28;20274;-82
2022/02/15 05:04:53;;;;;;;8.60;3.33;;;9.60;99.90;;;;;;4988882;28;20194;-81
2022/02/15 05:07:37;;;;;;;6.95;3.30;;;9.60;99.90;;;;;;4995063;28;20198;-80
2022/02/15 05:10:04;;;;;;;7.10;3.40;;;9.60;99.90;;;;;;4981167;28;20179;-80
2022/02/15 05:12:36;;;;;;;5.18;3.22;;;9.60;99.90;;;;;;4998880;28;20178;-81
2022/02/15 05:15:02;;;;;;;6.22;4.10;;;9.60;99.90;;;;;;4996024;28;20183;-82
2022/02/15 05:17:46;;;;;;;5.55;3.35;;;9.50;99.90;;;;;;4986217;28;20214;-81
2022/02/15 05:20:14;;;;;;;9.13;4.93;;;9.50;99.90;;;;;;5008608;28;20213;-81
2022/02/15 05:22:40;;;;;;;7.90;4.15;;;9.50;99.90;;;;;;4991425;28;20569;-81
2022/02/15 05:25:06;;;;;;;6.72;4.55;;;9.50;99.90;;;;;;4979508;28;20197;-81
2022/02/15 05:27:33;;;;;;;6.05;4.07;;;9.50;99.90;;;;;;4979574;28;20663;-81
2022/02/15 05:30:04;;;;;;;3.78;3.45;;;9.50;99.90;;;;;;5001358;28;20176;-81
2022/02/15 05:32:39;;;;;;;5.95;5.10;;;9.50;99.90;;;;;;4977354;28;20204;-81
2022/02/15 05:35:08;;;;;;;5.88;4.20;;;9.50;99.90;;;;;;4997703;28;20258;-82
2022/02/15 05:37:38;;;;;;;8.10;4.45;;;9.50;99.90;;;;;;4984980;28;20758;-81
2022/02/15 05:40:07;;;;;;;3.95;3.55;;;9.50;99.90;;;;;;4995539;28;20217;-81
2022/02/15 05:42:43;;;;;;;10.35;4.40;;;9.60;99.90;;;;;;4993096;28;20683;-82
2022/02/15 05:45:11;;;;;;;4.20;3.78;;;9.60;99.90;;;;;;4968273;28;20597;-83
2022/02/15 05:47:48;;;;;;;5.03;3.70;;;9.60;99.90;;;;;;4995937;28;20264;-82
2022/02/15 05:53:00;;;;;;;5.05;3.75;;;9.70;99.90;;;;;;4970880;28;20516;-82
2022/02/15 05:55:26;;;;;;;3.95;3.55;;;9.70;99.90;;;;;;4983497;28;20174;-83
2022/02/15 05:57:56;;;;;;;8.27;3.95;;;9.70;99.90;;;;;;4981963;28;20206;-82
2022/02/15 06:00:22;;;;;;;6.20;3.50;;;9.70;99.90;;;;;;4994554;28;20190;-81
2022/02/15 06:02:53;;;;;;;8.15;3.50;;;9.70;99.90;;;;;;4992738;28;20211;-82
2022/02/15 06:05:34;;;;;;;7.55;4.10;;;9.70;99.90;;;;;;4976549;28;20206;-82
2022/02/15 06:08:01;;;;;;;10.15;3.53;;;9.70;99.90;;;;;;4971422;28;20199;-82
2022/02/15 06:10:31;;;;;;;6.85;3.83;;;9.70;99.90;;;;;;4993699;28;20183;-82
2022/02/15 06:13:15;;;;;;;10.52;4.03;;;9.70;99.90;;;;;;4967517;28;20186;-82
2022/02/15 06:15:42;;;;;;;8.77;4.45;;;9.60;99.90;;;;;;4983916;28;20214;-82
2022/02/15 06:18:12;;;;;;;4.93;4.05;;;9.70;99.90;;;;;;4995646;28;20206;-81
2022/02/15 06:20:45;;;;;;;8.45;3.75;;;9.60;99.90;;;;;;4984869;28;20198;-82
2022/02/15 06:23:12;;;;;;;8.73;4.03;;;9.60;99.90;;;;;;4993840;28;20202;-81
2022/02/15 06:25:38;;;;;;;6.30;3.80;;;9.60;99.90;;;;;;5002520;28;20274;-78
2022/02/15 06:28:04;;;;;;;6.00;4.73;;;9.60;99.90;;;;;;4995602;28;20201;-77
2022/02/15 06:30:35;;;;;;;6.35;4.10;;;9.60;99.90;;;;;;5001405;28;20573;-76
2022/02/15 06:33:05;;;;;;;7.38;4.07;;;9.60;99.90;;;;;;4993656;28;20183;-77
2022/02/15 06:35:31;;;;;;;6.85;4.28;;;9.60;99.90;;;;;;4968960;28;20265;-77
2022/02/15 06:38:11;;;;;;;5.85;5.00;;;9.60;99.90;;;;;;4983207;28;20207;-77
2022/02/15 06:40:38;;;;;;;7.22;4.45;;;9.60;99.90;;;;;;4982071;28;20183;-77
2022/02/15 06:43:10;;;;;;;5.35;4.60;;;9.60;99.90;;;;;;5000149;28;20619;-77
2022/02/15 06:45:38;;;;;;;4.32;3.92;;;9.60;99.90;;;;;;4986086;28;20273;-77
2022/02/15 06:48:05;;;;;;;6.40;4.55;;;9.60;99.90;;;;;;4984136;28;20307;-77
2022/02/15 06:50:34;;;;;;;4.95;4.00;;;9.60;99.90;;;;;;4976807;28;20691;-77
2022/02/15 06:53:17;;;;;;;5.50;4.53;;;9.60;99.90;;;;;;5002916;28;20192;-77
2022/02/15 06:56:09;;;;;;;5.78;4.45;;;9.60;99.90;;;;;;4977896;28;20239;-77
2022/02/15 06:58:37;;;;;;;6.38;5.20;;;9.60;99.90;;;;;;4969098;28;21272;-77
2022/02/15 07:01:04;;;;;;;6.20;4.53;;;9.60;99.90;;;;;;5003673;28;20186;-77
2022/02/15 07:03:30;;;;;;;7.82;5.53;;;9.60;99.90;;;;;;4986363;28;20733;-77
2022/02/15 07:06:02;;;;;;;5.35;4.85;;;9.60;99.90;;;;;;4986316;28;20182;-78
2022/02/15 07:08:28;;;;;;;7.35;4.32;;;9.60;99.90;;;;;;5003894;28;20591;-77
2022/02/15 07:10:54;;;;;;;6.90;4.90;;;9.60;99.90;;;;;;4966606;28;20237;-76
2022/02/15 07:13:22;;;;;;;5.70;4.88;;;9.60;99.90;;;;;;4998788;28;20553;-77
2022/02/15 07:15:54;;;;;;;6.82;4.70;;;9.60;99.90;;;;;;4982769;28;20620;-75
2022/02/15 07:18:22;;;;;;;6.72;5.05;;;9.60;99.90;;;;;;4986219;28;20214;-77
2022/02/15 07:21:10;;;;;;;6.28;3.75;;;9.60;99.90;;;;;;4995054;28;20611;-76
2022/02/15 07:23:42;;;;;;;5.63;4.85;;;9.60;99.90;;;;;;4991714;28;20229;-77
2022/02/15 07:26:26;;;;;;;7.15;5.60;;;9.60;99.90;;;;;;5010181;28;20546;-76
2022/02/15 07:29:17;;;;;;;5.60;5.00;;;9.70;99.90;;;;;;4994624;28;20165;-77
2022/02/15 07:32:18;;;;;;;7.85;4.05;;;9.70;99.90;;;;;;4966563;28;20186;-77
2022/02/15 07:34:45;;;;;;;6.70;4.55;;;9.70;99.90;;;;;;4969536;28;20293;-77
2022/02/15 07:37:11;;;;;;;7.10;5.37;;;9.70;99.90;;;;;;4983033;28;20289;-78
2022/02/15 07:39:37;;;;;;;6.67;5.40;;;9.80;99.90;;;;;;5006397;28;20600;-77
2022/02/15 07:42:03;;;;;;;7.20;5.10;;;9.80;99.90;;;;;;4991874;28;20198;-76
2022/02/15 07:44:36;;;;;;;8.10;5.40;;;9.80;99.90;;;;;;4966529;28;20613;-76
2022/02/15 07:47:03;;;;;;;8.27;5.90;;;9.90;99.90;;;;;;4971727;28;20191;-77
2022/02/15 07:49:31;;;;;;;5.82;4.93;;;9.90;99.90;;;;;;5007891;28;20596;-77
2022/02/15 07:51:58;;;;;;;7.05;5.72;;;10.00;99.90;;;;;;5001369;28;20269;-77
2022/02/15 07:54:24;;;;;;;6.00;5.22;;;10.00;99.90;;;;;;4981857;28;20640;-77
2022/02/15 07:56:50;;;;;;;8.10;5.95;;;10.10;99.90;;;;;;4985928;28;20241;-77
2022/02/15 07:59:15;;;;;;;6.97;5.93;;;10.10;99.90;;;;;;4988898;28;20209;-76
2022/02/15 08:01:41;;;;;;;7.00;6.00;;;10.20;99.90;;;;;;5002911;28;20232;-77
2022/02/15 08:04:08;;;;;;;7.93;4.97;;;10.20;99.90;;;;;;4982645;28;20586;-77
2022/02/15 08:06:36;;;;;;;6.82;6.13;;;10.20;99.90;;;;;;4985818;28;21109;-76
2022/02/15 08:09:03;;;;;;;8.48;6.07;;;10.30;99.90;;;;;;4981957;28;20221;-75
2022/02/15 08:11:30;;;;;;;7.40;5.90;;;10.40;99.90;;;;;;4985138;28;20606;-75
2022/02/15 08:13:59;;;;;;;6.82;5.65;;;10.50;99.90;;;;;;4990553;28;20183;-74
2022/02/15 08:16:26;;;;;;;8.27;5.78;;;10.70;99.90;;;;;;4999625;28;20179;-77
2022/02/15 08:18:52;;;;;;;9.63;6.88;;;10.90;99.90;;;;;;4973372;28;20202;-77
2022/02/15 08:21:18;;;;;;;9.93;5.82;;;11.00;99.90;;;;;;5014365;28;20201;-77
2022/02/15 08:23:46;;;;;;;8.93;6.13;;;11.10;99.90;;;;;;4985168;28;20603;-77
2022/02/15 08:26:11;;;;;;;10.93;7.28;;;11.20;99.90;;;;;;5002805;28;20175;-77
2022/02/15 08:28:43;;;;;;;7.10;6.40;;;11.30;99.90;;;;;;4982002;28;20607;-77
2022/02/15 08:31:10;;;;;;;8.25;6.03;;;11.40;99.90;;;;;;5003069;28;20187;-77
2022/02/15 08:33:37;;;;;;;9.60;5.90;;;11.30;99.90;;;;;;4992499;28;20171;-77
2022/02/15 08:36:04;;;;;;;6.50;5.18;;;11.30;99.90;;;;;;5000067;28;20543;-77
2022/02/15 08:38:33;;;;;;;9.23;5.90;;;11.30;99.90;;;;;;5002018;28;20213;-77
2022/02/15 08:41:03;;;;;;;7.45;5.90;;;11.30;99.90;;;;;;4982698;28;20747;-77
2022/02/15 08:43:29;;;;;;;9.90;6.47;;;11.30;99.90;;;;;;5001097;28;20536;-77
2022/02/15 08:45:56;;;;;;;8.20;5.65;;;11.30;99.90;;;;;;5000869;28;20195;-77
2022/02/15 08:48:22;;;;;;;8.90;6.40;;;11.30;99.90;;;;;;4967618;28;20202;-77
2022/02/15 08:50:48;;;;;;;9.00;5.83;;;11.30;99.90;;;;;;4974980;28;20590;-77
2022/02/15 08:53:14;;;;;;;8.38;5.60;;;11.40;99.90;;;;;;4999864;28;20647;-77
2022/02/15 08:55:40;;;;;;;7.70;5.32;;;11.40;99.90;;;;;;4983056;28;21230;-77
2022/02/15 08:58:05;;;;;;;9.23;5.97;;;11.50;99.90;;;;;;4992486;28;20283;-77
2022/02/15 09:00:33;;;;;;;8.67;4.60;;;11.60;99.90;;;;;;5000011;28;20182;-77
2022/02/15 09:03:02;;;;;;;6.05;5.25;;;11.70;99.90;;;;;;4999584;28;20207;-78
2022/02/15 09:05:27;;;;;;;7.20;4.70;;;11.80;99.90;;;;;;5004235;28;20232;-77
2022/02/15 09:07:53;;;;;;;8.00;5.17;;;11.90;99.90;;;;;;5004215;28;20751;-77
2022/02/15 09:10:19;;;;;;;9.20;4.77;;;12.10;99.90;;;;;;5004518;28;20178;-77
2022/02/15 09:12:44;;;;;;;9.80;4.40;;;12.30;99.90;;;;;;4995280;28;20174;-77
2022/02/15 09:15:13;;;;;;;7.40;4.70;;;12.50;99.90;;;;;;4986171;28;20209;-77
2022/02/15 09:17:40;;;;;;;5.35;3.97;;;12.50;99.90;;;;;;5004548;28;20608;-77
2022/02/15 09:20:07;;;;;;;5.65;2.92;;;12.60;99.90;;;;;;4985878;28;20265;-77
2022/02/15 09:22:33;;;;;;;8.02;3.92;;;12.60;99.90;;;;;;4977289;28;20202;-77
2022/02/15 09:24:59;;;;;;;7.50;3.73;;;12.70;99.90;;;;;;5004333;28;20183;-77
2022/02/15 09:27:26;;;;;;;7.40;3.30;;;12.70;99.90;;;;;;5005885;28;20194;-77
2022/02/15 09:29:55;;;;;;;7.80;3.22;;;12.60;99.90;;;;;;4993804;28;20186;-78
2022/02/15 09:32:21;;;;;;;4.35;2.78;;;12.60;99.90;;;;;;4990084;28;20190;-78
2022/02/15 09:34:47;;;;;;;5.60;3.47;;;12.50;99.90;;;;;;4991271;28;20213;-77
2022/02/15 09:37:14;;;;;;;8.27;4.40;;;12.50;99.90;;;;;;4993233;28;20281;-78
2022/02/15 09:39:40;;;;;;;15.50;5.68;;;12.50;99.90;;;;;;5006264;28;20589;-77
2022/02/15 09:42:06;;;;;;;8.93;4.80;;;12.50;99.90;;;;;;4996427;28;20206;-77
2022/02/15 09:44:32;;;;;;;9.40;4.53;;;12.40;99.90;;;;;;5001463;28;20182;-77
2022/02/15 09:46:58;;;;;;;7.53;3.70;;;12.30;99.90;;;;;;5003664;28;20928;-77
2022/02/15 09:52:11;;;;;;;12.30;6.30;;;12.30;99.90;;;;;;4987966;28;20531;-77
2022/02/15 09:54:39;;;;;;;5.75;3.70;;;12.20;99.90;;;;;;4986263;28;20601;-77
2022/02/15 09:57:05;;;;;;;9.25;4.05;;;12.20;99.90;;;;;;5004882;28;20272;-78
2022/02/15 09:59:31;;;;;;;5.53;3.70;;;12.20;99.90;;;;;;5001764;28;20266;-77
2022/02/15 10:01:57;;;;;;;8.00;4.90;;;12.10;99.90;;;;;;5008782;28;20285;-78
2022/02/15 10:04:34;;;;;;;6.82;4.35;;;12.10;99.90;;;;;;4998914;28;20537;-77
2022/02/15 10:07:01;;;;;;;7.75;5.45;;;12.20;99.90;;;;;;4955567;28;20292;-77
2022/02/15 10:09:28;;;;;;;11.75;5.15;;;12.20;99.90;;;;;;4978956;28;20178;-77
2022/02/15 10:12:03;;;;;;;6.45;4.10;;;12.20;99.90;;;;;;4969670;28;20193;-77
2022/02/15 10:14:29;;;;;;;6.10;3.53;;;12.30;99.90;;;;;;5004098;28;20668;-77
2022/02/15 10:16:55;;;;;;;6.57;4.03;;;12.40;99.90;;;;;;5003867;28;20572;-78
2022/02/15 10:19:27;;;;;;;5.83;3.50;;;12.50;99.90;;;;;;4985047;28;20186;-77
2022/02/15 10:22:00;;;;;;;5.90;3.72;;;12.60;99.90;;;;;;5001101;28;20619;-78
2022/02/15 10:24:29;;;;;;;5.90;3.97;;;12.80;99.90;;;;;;5002745;28;20226;-77
2022/02/15 10:27:10;;;;;;;8.65;4.15;;;13.00;99.90;;;;;;5006179;28;20285;-78
2022/02/15 10:29:38;;;;;;;6.75;3.72;;;13.00;99.90;;;;;;4988990;28;20193;-78
2022/02/15 10:32:06;;;;;;;5.28;2.80;;;13.10;99.90;;;;;;5001633;28;20194;-77
2022/02/15 10:34:32;;;;;;;4.25;2.80;;;13.10;99.90;;;;;;5012550;28;20214;-78
2022/02/15 10:36:59;;;;;;;4.60;2.80;;;13.10;99.90;;;;;;4994387;28;20230;-77
2022/02/15 10:39:41;;;;;;;3.83;2.30;;;13.00;99.90;;;;;;5000767;28;20179;-78
2022/02/15 10:42:23;;;;;;;3.35;2.30;;;13.00;99.90;;;;;;4983938;28;20263;-78
2022/02/15 10:44:58;;;;;;;3.55;1.65;;;13.00;99.90;;;;;;4977466;28;20201;-78
2022/02/15 10:47:33;;;;;;;6.63;2.35;;;13.00;99.90;;;;;;5006435;28;20285;-79
2022/02/15 10:50:04;;;;;;;3.72;1.52;;;13.00;99.90;;;;;;4985209;28;20203;-78
2022/02/15 10:52:31;;;;;;;4.45;1.45;;;13.10;99.90;;;;;;4974355;28;20189;-77
2022/02/15 10:54:58;;;;;;;3.47;1.50;;;13.10;99.90;;;;;;4983007;28;20265;-77
2022/02/15 10:57:25;;;;;;;5.50;2.00;;;13.20;99.90;;;;;;5002343;28;20597;-77
2022/02/15 10:59:55;;;;;;;6.43;1.70;;;13.40;99.90;;;;;;4992199;28;20683;-76
2022/02/15 11:02:23;;;;;;;2.10;1.53;;;13.60;99.90;;;;;;5001595;28;20656;-77
2022/02/15 11:04:50;;;;;;;4.17;1.50;;;13.90;99.90;;;;;;5003032;28;20589;-76
2022/02/15 11:07:18;;;;;;;4.77;1.90;;;14.30;99.90;;;;;;5000898;28;20625;-78
2022/02/15 11:10:02;;;;;;;7.17;2.20;;;14.70;99.90;;;;;;4985275;28;20950;-79
2022/02/15 11:12:34;;;;;;;5.90;1.97;;;15.20;99.90;;;;;;4984341;28;20807;-79
2022/02/15 11:15:04;;;;;;;3.43;1.40;;;15.80;99.90;;;;;;4977419;28;20597;-79
2022/02/15 11:17:31;;;;;;;2.80;1.13;;;16.20;99.90;;;;;;5001077;28;20654;-80
2022/02/15 11:20:07;;;;;;;6.80;1.63;;;16.50;99.90;;;;;;5002880;28;20930;-79
2022/02/15 11:22:53;;;;;;;3.00;1.17;;;16.80;99.90;;;;;;5000570;28;20642;-79
2022/02/15 11:25:37;;;;;;;2.87;1.47;;;16.90;99.90;;;;;;5003025;28;20593;-77
2022/02/15 11:28:12;;;;;;;3.73;1.37;;;16.70;99.90;;;;;;4999122;28;20618;-78
2022/02/15 11:30:49;;;;;;;4.43;1.30;;;16.50;99.90;;;;;;4975077;28;20597;-78
2022/02/15 11:33:24;;;;;;;3.30;1.70;;;16.30;99.90;;;;;;4984220;28;20598;-78
2022/02/15 11:36:04;;;;;;;6.70;1.90;;;16.10;99.90;;;;;;5006548;28;20604;-77
2022/02/15 11:38:31;;;;;;;3.30;1.37;;;15.80;99.90;;;;;;4965523;28;20624;-77
2022/02/15 11:41:05;;;;;;;3.87;1.90;;;15.60;99.90;;;;;;5000716;28;20584;-77
2022/02/15 11:43:32;;;;;;;5.27;3.13;;;15.30;99.90;;;;;;4999998;28;20665;-78
2022/02/15 11:45:59;;;;;;;5.20;4.70;;;15.00;99.90;;;;;;5000013;28;20602;-76
2022/02/15 11:48:39;;;;;;;7.27;3.70;;;14.70;99.90;;;;;;4999932;28;20613;-76
2022/02/15 11:51:16;;;;;;;5.80;3.37;;;14.50;99.90;;;;;;4998753;28;20577;-77
2022/02/15 11:53:44;;;;;;;6.53;2.80;;;14.30;99.90;;;;;;4983030;28;20590;-79
2022/02/15 11:56:14;;;;;;;4.80;2.37;;;14.20;99.90;;;;;;4969447;28;20592;-77
2022/02/15 11:58:49;;;;;;;4.70;2.47;;;14.00;99.90;;;;;;4998411;28;20700;-77
2022/02/15 12:01:29;;;;;;;5.00;2.20;;;14.00;99.90;;;;;;5003956;28;20577;-77
2022/02/15 12:03:57;;;;;;;4.57;2.33;;;14.00;99.90;;;;;;4999616;28;20740;-77
2022/02/15 12:06:35;;;;;;;3.73;2.13;;;14.00;99.90;;;;;;4984869;28;20585;-77
2022/02/15 12:09:00;;;;;;;4.33;2.10;;;14.10;99.90;;;;;;4998935;28;20590;-76
2022/02/15 12:11:38;;;;;;;4.50;2.30;;;14.10;99.90;;;;;;5003721;28;20582;-76
2022/02/15 12:14:15;;;;;;;4.67;1.90;;;14.00;99.90;;;;;;5004266;28;20620;-77
2022/02/15 12:16:55;;;;;;;4.10;1.70;;;14.10;99.90;;;;;;4973973;28;20586;-77
2022/02/15 12:19:30;;;;;;;5.73;1.20;;;14.10;99.90;;;;;;4989063;28;20589;-77
2022/02/15 12:22:10;;;;;;;2.70;1.50;;;14.20;99.90;;;;;;4985039;28;20692;-76
2022/02/15 12:24:36;;;;;;;3.50;1.37;;;14.20;99.90;;;;;;5008044;28;21012;-77
2022/02/15 12:27:04;;;;;;;4.23;1.67;;;14.20;99.90;;;;;;5005743;28;20629;-77
2022/02/15 12:29:31;;;;;;;4.23;1.47;;;14.20;99.90;;;;;;4982488;28;20613;-77
2022/02/15 12:31:58;;;;;;;3.20;1.60;;;14.10;99.90;;;;;;4980023;28;20601;-76
2022/02/15 12:34:25;;;;;;;4.53;2.17;;;14.00;99.90;;;;;;4972911;28;20644;-77
2022/02/15 12:36:51;;;;;;;4.30;1.60;;;13.90;99.90;;;;;;4990429;28;20764;-77
2022/02/15 12:39:20;;;;;;;4.07;2.07;;;13.80;99.90;;;;;;4987845;28;21188;-77
2022/02/15 12:41:47;;;;;;;5.40;2.38;;;13.70;99.90;;;;;;5009289;28;20633;-78
2022/02/15 12:44:14;;;;;;;5.90;1.35;;;13.60;99.90;;;;;;4985626;28;20516;-78
2022/02/15 12:46:42;;;;;;;2.95;1.15;;;13.60;99.90;;;;;;5006209;28;20178;-77
2022/02/15 12:49:08;;;;;;;3.55;1.23;;;13.50;99.90;;;;;;5008175;28;20182;-77
2022/02/15 12:51:36;;;;;;;3.20;0.90;;;13.40;99.90;;;;;;5006510;28;20179;-78
2022/02/15 12:54:05;;;;;;;2.58;0.90;;;13.30;99.90;;;;;;5004736;28;20182;-79
2022/02/15 12:56:33;;;;;;;2.58;1.00;;;13.30;99.90;;;;;;4996575;28;20178;-78
2022/02/15 12:59:04;;;;;;;4.70;1.13;;;13.20;99.90;;;;;;5006521;28;20308;-78
2022/02/15 13:01:33;;;;;;;2.28;0.90;;;13.10;99.90;;;;;;5012152;28;20162;-79
2022/02/15 13:03:59;;;;;;;2.03;0.80;;;13.00;99.90;;;;;;4987187;28;20223;-79
2022/02/15 13:06:25;;;;;;;1.75;0.70;;;12.90;99.90;;;;;;5006612;28;20494;-80
2022/02/15 13:08:55;;;;;;;3.40;0.95;;;12.90;99.90;;;;;;4975738;28;20198;-80